sensor_id;sensor_type;location;lat;lon;timestamp;P1;durP1;ratioP1;P2;durP2;ratioP2
48161;SDS011;33950;48.154;16.316;2023-04-03T00:02:12;7.93;;;3.22;;
48161;SDS011;33950;48.154;16.316;2023-04-03T00:04:58;7.00;;;3.08;;
48161;SDS011;33950;48.154;16.316;2023-04-03T00:07:45;6.07;;;3.13;;
48161;SDS011;33950;48.154;16.316;2023-04-03T00:10:32;11.10;;;3.45;;
48161;SDS011;33950;48.154;16.316;2023-04-03T00:13:18;4.03;;;2.67;;
48161;SDS011;33950;48.154;16.316;2023-04-03T00:16:05;5.63;;;3.30;;
48161;SDS011;33950;48.154;16.316;2023-04-03T00:18:52;4.05;;;2.80;;
48161;SDS011;33950;48.154;16.316;2023-04-03T00:21:38;5.55;;;3.30;;
48161;SDS011;33950;48.154;16.316;2023-04-03T00:24:24;5.78;;;3.25;;
48161;SDS011;33950;48.154;16.316;2023-04-03T00:27:12;6.75;;;2.75;;
48161;SDS011;33950;48.154;16.316;2023-04-03T00:29:58;5.97;;;2.90;;
48161;SDS011;33950;48.154;16.316;2023-04-03T00:32:44;4.72;;;2.78;;
48161;SDS011;33950;48.154;16.316;2023-04-03T00:35:30;5.50;;;2.80;;
48161;SDS011;33950;48.154;16.316;2023-04-03T00:38:16;6.40;;;3.50;;
48161;SDS011;33950;48.154;16.316;2023-04-03T00:41:03;8.68;;;2.95;;
48161;SDS011;33950;48.154;16.316;2023-04-03T00:43:51;4.07;;;2.53;;
48161;SDS011;33950;48.154;16.316;2023-04-03T00:46:37;5.40;;;3.40;;
48161;SDS011;33950;48.154;16.316;2023-04-03T00:49:23;6.93;;;2.90;;
48161;SDS011;33950;48.154;16.316;2023-04-03T00:52:11;5.00;;;3.00;;
48161;SDS011;33950;48.154;16.316;2023-04-03T00:55:03;6.20;;;3.17;;
48161;SDS011;33950;48.154;16.316;2023-04-03T00:57:51;6.97;;;2.67;;
48161;SDS011;33950;48.154;16.316;2023-04-03T01:00:40;4.20;;;3.30;;
48161;SDS011;33950;48.154;16.316;2023-04-03T01:03:29;5.93;;;3.20;;
48161;SDS011;33950;48.154;16.316;2023-04-03T01:06:17;4.93;;;3.17;;
48161;SDS011;33950;48.154;16.316;2023-04-03T01:09:08;7.97;;;3.17;;
48161;SDS011;33950;48.154;16.316;2023-04-03T01:11:54;5.43;;;2.88;;
48161;SDS011;33950;48.154;16.316;2023-04-03T01:14:59;6.05;;;3.30;;
48161;SDS011;33950;48.154;16.316;2023-04-03T01:17:48;4.47;;;2.67;;
48161;SDS011;33950;48.154;16.316;2023-04-03T01:24:25;4.57;;;3.28;;
48161;SDS011;33950;48.154;16.316;2023-04-03T01:27:17;6.90;;;2.97;;
48161;SDS011;33950;48.154;16.316;2023-04-03T01:30:03;6.57;;;2.75;;
48161;SDS011;33950;48.154;16.316;2023-04-03T01:32:52;6.50;;;3.70;;
48161;SDS011;33950;48.154;16.316;2023-04-03T01:35:38;6.57;;;3.35;;
48161;SDS011;33950;48.154;16.316;2023-04-03T01:38:24;7.57;;;3.53;;
48161;SDS011;33950;48.154;16.316;2023-04-03T01:41:11;5.45;;;2.90;;
48161;SDS011;33950;48.154;16.316;2023-04-03T01:43:57;5.63;;;2.88;;
48161;SDS011;33950;48.154;16.316;2023-04-03T01:46:43;8.25;;;3.75;;
48161;SDS011;33950;48.154;16.316;2023-04-03T01:49:30;4.53;;;2.80;;
48161;SDS011;33950;48.154;16.316;2023-04-03T01:52:16;6.15;;;3.10;;
48161;SDS011;33950;48.154;16.316;2023-04-03T01:55:03;5.72;;;3.55;;
48161;SDS011;33950;48.154;16.316;2023-04-03T01:57:49;9.20;;;3.22;;
48161;SDS011;33950;48.154;16.316;2023-04-03T02:00:35;9.00;;;3.40;;
48161;SDS011;33950;48.154;16.316;2023-04-03T02:03:21;6.22;;;3.40;;
48161;SDS011;33950;48.154;16.316;2023-04-03T02:06:09;3.58;;;2.45;;
48161;SDS011;33950;48.154;16.316;2023-04-03T02:08:55;7.07;;;3.00;;
48161;SDS011;33950;48.154;16.316;2023-04-03T02:11:41;5.00;;;3.17;;
48161;SDS011;33950;48.154;16.316;2023-04-03T02:14:27;7.20;;;3.80;;
48161;SDS011;33950;48.154;16.316;2023-04-03T02:17:14;6.40;;;3.65;;
48161;SDS011;33950;48.154;16.316;2023-04-03T02:20:00;9.70;;;4.03;;
48161;SDS011;33950;48.154;16.316;2023-04-03T02:22:47;5.93;;;3.50;;
48161;SDS011;33950;48.154;16.316;2023-04-03T02:25:34;5.60;;;3.63;;
48161;SDS011;33950;48.154;16.316;2023-04-03T02:28:20;6.70;;;3.67;;
48161;SDS011;33950;48.154;16.316;2023-04-03T02:31:06;5.90;;;3.67;;
48161;SDS011;33950;48.154;16.316;2023-04-03T02:33:53;5.47;;;3.22;;
48161;SDS011;33950;48.154;16.316;2023-04-03T02:36:39;7.93;;;3.38;;
48161;SDS011;33950;48.154;16.316;2023-04-03T02:39:27;10.25;;;3.80;;
48161;SDS011;33950;48.154;16.316;2023-04-03T02:42:13;6.88;;;3.60;;
48161;SDS011;33950;48.154;16.316;2023-04-03T02:44:59;7.22;;;3.53;;
48161;SDS011;33950;48.154;16.316;2023-04-03T02:47:45;5.65;;;3.10;;
48161;SDS011;33950;48.154;16.316;2023-04-03T02:50:31;6.30;;;3.45;;
48161;SDS011;33950;48.154;16.316;2023-04-03T02:53:18;8.30;;;4.05;;
48161;SDS011;33950;48.154;16.316;2023-04-03T02:56:05;5.97;;;3.80;;
48161;SDS011;33950;48.154;16.316;2023-04-03T02:58:51;9.25;;;3.70;;
48161;SDS011;33950;48.154;16.316;2023-04-03T03:01:38;5.95;;;4.15;;
48161;SDS011;33950;48.154;16.316;2023-04-03T03:04:24;6.32;;;3.42;;
48161;SDS011;33950;48.154;16.316;2023-04-03T03:07:10;8.65;;;3.60;;
48161;SDS011;33950;48.154;16.316;2023-04-03T03:09:56;7.43;;;3.92;;
48161;SDS011;33950;48.154;16.316;2023-04-03T03:12:43;7.22;;;3.58;;
48161;SDS011;33950;48.154;16.316;2023-04-03T03:15:30;8.85;;;3.10;;
48161;SDS011;33950;48.154;16.316;2023-04-03T03:18:16;14.82;;;4.07;;
48161;SDS011;33950;48.154;16.316;2023-04-03T03:21:02;5.93;;;3.10;;
48161;SDS011;33950;48.154;16.316;2023-04-03T03:23:49;4.85;;;2.90;;
48161;SDS011;33950;48.154;16.316;2023-04-03T03:26:35;6.72;;;3.15;;
48161;SDS011;33950;48.154;16.316;2023-04-03T03:29:23;5.68;;;3.13;;
48161;SDS011;33950;48.154;16.316;2023-04-03T03:32:09;8.07;;;3.50;;
48161;SDS011;33950;48.154;16.316;2023-04-03T03:34:55;6.80;;;3.13;;
48161;SDS011;33950;48.154;16.316;2023-04-03T03:37:41;7.72;;;3.40;;
48161;SDS011;33950;48.154;16.316;2023-04-03T03:40:27;6.05;;;3.30;;
48161;SDS011;33950;48.154;16.316;2023-04-03T03:43:13;7.55;;;3.60;;
48161;SDS011;33950;48.154;16.316;2023-04-03T03:46:01;7.25;;;3.55;;
48161;SDS011;33950;48.154;16.316;2023-04-03T03:48:47;6.18;;;3.13;;
48161;SDS011;33950;48.154;16.316;2023-04-03T03:51:33;6.82;;;3.58;;
48161;SDS011;33950;48.154;16.316;2023-04-03T03:54:19;6.70;;;3.30;;
48161;SDS011;33950;48.154;16.316;2023-04-03T03:57:05;9.18;;;3.35;;
48161;SDS011;33950;48.154;16.316;2023-04-03T03:59:52;10.98;;;5.22;;
48161;SDS011;33950;48.154;16.316;2023-04-03T04:02:39;12.52;;;5.70;;
48161;SDS011;33950;48.154;16.316;2023-04-03T04:05:25;9.48;;;4.15;;
48161;SDS011;33950;48.154;16.316;2023-04-03T04:08:11;8.77;;;4.88;;
48161;SDS011;33950;48.154;16.316;2023-04-03T04:10:57;7.10;;;3.92;;
48161;SDS011;33950;48.154;16.316;2023-04-03T04:13:43;9.38;;;4.18;;
48161;SDS011;33950;48.154;16.316;2023-04-03T04:16:29;13.05;;;5.95;;
48161;SDS011;33950;48.154;16.316;2023-04-03T04:19:17;6.75;;;3.30;;
48161;SDS011;33950;48.154;16.316;2023-04-03T04:22:03;8.40;;;4.03;;
48161;SDS011;33950;48.154;16.316;2023-04-03T04:24:49;7.55;;;3.42;;
48161;SDS011;33950;48.154;16.316;2023-04-03T04:27:35;8.10;;;3.53;;
48161;SDS011;33950;48.154;16.316;2023-04-03T04:30:22;7.97;;;4.13;;
48161;SDS011;33950;48.154;16.316;2023-04-03T04:33:08;13.57;;;4.53;;
48161;SDS011;33950;48.154;16.316;2023-04-03T04:35:56;11.30;;;5.32;;
48161;SDS011;33950;48.154;16.316;2023-04-03T04:38:43;8.85;;;3.85;;
48161;SDS011;33950;48.154;16.316;2023-04-03T04:41:29;6.15;;;2.90;;
48161;SDS011;33950;48.154;16.316;2023-04-03T04:44:15;7.25;;;3.50;;
48161;SDS011;33950;48.154;16.316;2023-04-03T04:47:01;6.30;;;3.42;;
48161;SDS011;33950;48.154;16.316;2023-04-03T04:49:47;10.02;;;4.15;;
48161;SDS011;33950;48.154;16.316;2023-04-03T04:52:35;8.82;;;4.00;;
48161;SDS011;33950;48.154;16.316;2023-04-03T04:55:21;8.90;;;3.15;;
48161;SDS011;33950;48.154;16.316;2023-04-03T04:58:07;8.20;;;3.50;;
48161;SDS011;33950;48.154;16.316;2023-04-03T05:00:58;8.70;;;3.78;;
48161;SDS011;33950;48.154;16.316;2023-04-03T05:03:44;9.30;;;4.80;;
48161;SDS011;33950;48.154;16.316;2023-04-03T05:06:31;14.50;;;5.93;;
48161;SDS011;33950;48.154;16.316;2023-04-03T05:09:19;5.20;;;2.72;;
48161;SDS011;33950;48.154;16.316;2023-04-03T05:12:05;14.85;;;5.45;;
48161;SDS011;33950;48.154;16.316;2023-04-03T05:14:51;21.45;;;9.30;;
48161;SDS011;33950;48.154;16.316;2023-04-03T05:17:38;12.20;;;5.13;;
48161;SDS011;33950;48.154;16.316;2023-04-03T05:20:24;5.80;;;3.22;;
48161;SDS011;33950;48.154;16.316;2023-04-03T05:23:10;11.43;;;3.60;;
48161;SDS011;33950;48.154;16.316;2023-04-03T05:25:58;8.98;;;4.80;;
48161;SDS011;33950;48.154;16.316;2023-04-03T05:28:44;12.98;;;5.10;;
48161;SDS011;33950;48.154;16.316;2023-04-03T05:31:30;7.18;;;3.67;;
48161;SDS011;33950;48.154;16.316;2023-04-03T05:34:16;12.07;;;5.10;;
48161;SDS011;33950;48.154;16.316;2023-04-03T05:37:02;6.82;;;3.63;;
48161;SDS011;33950;48.154;16.316;2023-04-03T05:39:50;5.55;;;3.20;;
48161;SDS011;33950;48.154;16.316;2023-04-03T05:42:38;10.32;;;4.95;;
48161;SDS011;33950;48.154;16.316;2023-04-03T05:45:24;8.15;;;4.45;;
48161;SDS011;33950;48.154;16.316;2023-04-03T05:48:10;8.35;;;3.88;;
48161;SDS011;33950;48.154;16.316;2023-04-03T05:50:56;8.23;;;2.78;;
48161;SDS011;33950;48.154;16.316;2023-04-03T05:53:44;7.20;;;2.70;;
48161;SDS011;33950;48.154;16.316;2023-04-03T05:56:31;5.93;;;2.90;;
48161;SDS011;33950;48.154;16.316;2023-04-03T05:59:19;7.32;;;3.70;;
48161;SDS011;33950;48.154;16.316;2023-04-03T06:02:06;8.05;;;2.85;;
48161;SDS011;33950;48.154;16.316;2023-04-03T06:04:52;10.60;;;3.78;;
48161;SDS011;33950;48.154;16.316;2023-04-03T06:07:39;14.15;;;5.78;;
48161;SDS011;33950;48.154;16.316;2023-04-03T06:10:25;8.52;;;3.72;;
48161;SDS011;33950;48.154;16.316;2023-04-03T06:13:11;10.88;;;3.78;;
48161;SDS011;33950;48.154;16.316;2023-04-03T06:15:59;6.47;;;3.03;;
48161;SDS011;33950;48.154;16.316;2023-04-03T06:18:45;10.73;;;3.28;;
48161;SDS011;33950;48.154;16.316;2023-04-03T06:21:31;5.82;;;3.03;;
48161;SDS011;33950;48.154;16.316;2023-04-03T06:24:18;9.73;;;3.33;;
48161;SDS011;33950;48.154;16.316;2023-04-03T06:27:05;9.07;;;2.97;;
48161;SDS011;33950;48.154;16.316;2023-04-03T06:29:51;10.07;;;3.53;;
48161;SDS011;33950;48.154;16.316;2023-04-03T06:32:39;7.60;;;3.53;;
48161;SDS011;33950;48.154;16.316;2023-04-03T06:35:25;10.40;;;4.07;;
48161;SDS011;33950;48.154;16.316;2023-04-03T06:38:13;9.68;;;3.50;;
48161;SDS011;33950;48.154;16.316;2023-04-03T06:41:00;12.18;;;3.90;;
48161;SDS011;33950;48.154;16.316;2023-04-03T06:43:46;10.88;;;3.63;;
48161;SDS011;33950;48.154;16.316;2023-04-03T06:46:32;12.27;;;5.57;;
48161;SDS011;33950;48.154;16.316;2023-04-03T06:49:19;15.18;;;5.32;;
48161;SDS011;33950;48.154;16.316;2023-04-03T06:52:05;7.82;;;3.53;;
48161;SDS011;33950;48.154;16.316;2023-04-03T06:54:52;7.78;;;3.03;;
48161;SDS011;33950;48.154;16.316;2023-04-03T06:57:42;5.50;;;3.58;;
48161;SDS011;33950;48.154;16.316;2023-04-03T07:00:28;9.55;;;3.45;;
48161;SDS011;33950;48.154;16.316;2023-04-03T07:03:15;8.18;;;3.70;;
48161;SDS011;33950;48.154;16.316;2023-04-03T07:06:03;7.55;;;3.25;;
48161;SDS011;33950;48.154;16.316;2023-04-03T07:08:49;7.05;;;3.40;;
48161;SDS011;33950;48.154;16.316;2023-04-03T07:11:35;7.40;;;3.17;;
48161;SDS011;33950;48.154;16.316;2023-04-03T07:14:22;15.98;;;3.30;;
48161;SDS011;33950;48.154;16.316;2023-04-03T07:17:08;8.93;;;2.85;;
48161;SDS011;33950;48.154;16.316;2023-04-03T07:19:54;7.05;;;3.05;;
48161;SDS011;33950;48.154;16.316;2023-04-03T07:22:42;4.88;;;2.55;;
48161;SDS011;33950;48.154;16.316;2023-04-03T07:25:28;5.97;;;2.70;;
48161;SDS011;33950;48.154;16.316;2023-04-03T07:28:14;5.97;;;2.95;;
48161;SDS011;33950;48.154;16.316;2023-04-03T07:31:02;8.68;;;3.47;;
48161;SDS011;33950;48.154;16.316;2023-04-03T07:33:51;7.78;;;3.75;;
48161;SDS011;33950;48.154;16.316;2023-04-03T07:36:37;8.45;;;4.05;;
48161;SDS011;33950;48.154;16.316;2023-04-03T07:39:25;5.72;;;2.53;;
48161;SDS011;33950;48.154;16.316;2023-04-03T07:42:11;5.93;;;2.70;;
48161;SDS011;33950;48.154;16.316;2023-04-03T07:44:57;8.43;;;2.70;;
48161;SDS011;33950;48.154;16.316;2023-04-03T07:47:44;11.15;;;3.28;;
48161;SDS011;33950;48.154;16.316;2023-04-03T07:50:30;4.90;;;2.47;;
48161;SDS011;33950;48.154;16.316;2023-04-03T07:53:17;8.15;;;2.97;;
48161;SDS011;33950;48.154;16.316;2023-04-03T07:56:05;7.35;;;3.47;;
48161;SDS011;33950;48.154;16.316;2023-04-03T07:58:52;4.13;;;2.47;;
48161;SDS011;33950;48.154;16.316;2023-04-03T08:01:39;10.52;;;2.92;;
48161;SDS011;33950;48.154;16.316;2023-04-03T08:04:25;5.80;;;2.85;;
48161;SDS011;33950;48.154;16.316;2023-04-03T08:07:12;6.70;;;3.08;;
48161;SDS011;33950;48.154;16.316;2023-04-03T08:09:58;6.57;;;3.40;;
48161;SDS011;33950;48.154;16.316;2023-04-03T08:12:47;4.63;;;2.95;;
48161;SDS011;33950;48.154;16.316;2023-04-03T08:15:34;7.32;;;2.75;;
48161;SDS011;33950;48.154;16.316;2023-04-03T08:18:21;10.48;;;3.58;;
48161;SDS011;33950;48.154;16.316;2023-04-03T08:21:10;8.32;;;2.85;;
48161;SDS011;33950;48.154;16.316;2023-04-03T08:23:57;9.45;;;3.10;;
48161;SDS011;33950;48.154;16.316;2023-04-03T08:26:43;7.95;;;3.42;;
48161;SDS011;33950;48.154;16.316;2023-04-03T08:29:31;7.47;;;3.30;;
48161;SDS011;33950;48.154;16.316;2023-04-03T08:32:17;5.30;;;3.13;;
48161;SDS011;33950;48.154;16.316;2023-04-03T08:35:03;5.07;;;2.80;;
48161;SDS011;33950;48.154;16.316;2023-04-03T08:37:50;6.97;;;3.15;;
48161;SDS011;33950;48.154;16.316;2023-04-03T08:40:36;7.10;;;3.03;;
48161;SDS011;33950;48.154;16.316;2023-04-03T08:43:26;4.82;;;2.88;;
48161;SDS011;33950;48.154;16.316;2023-04-03T08:46:22;10.20;;;3.28;;
48161;SDS011;33950;48.154;16.316;2023-04-03T08:49:17;9.18;;;3.22;;
48161;SDS011;33950;48.154;16.316;2023-04-03T08:52:10;4.80;;;1.92;;
48161;SDS011;33950;48.154;16.316;2023-04-03T08:54:58;6.45;;;3.28;;
48161;SDS011;33950;48.154;16.316;2023-04-03T08:57:46;10.60;;;3.03;;
48161;SDS011;33950;48.154;16.316;2023-04-03T09:00:34;8.65;;;3.25;;
48161;SDS011;33950;48.154;16.316;2023-04-03T09:03:31;5.15;;;3.08;;
48161;SDS011;33950;48.154;16.316;2023-04-03T09:06:20;5.78;;;2.90;;
48161;SDS011;33950;48.154;16.316;2023-04-03T09:09:12;8.82;;;2.22;;
48161;SDS011;33950;48.154;16.316;2023-04-03T09:12:04;4.78;;;2.15;;
48161;SDS011;33950;48.154;16.316;2023-04-03T09:15:02;7.05;;;2.58;;
48161;SDS011;33950;48.154;16.316;2023-04-03T09:17:59;4.72;;;2.58;;
48161;SDS011;33950;48.154;16.316;2023-04-03T09:20:53;8.43;;;2.75;;
48161;SDS011;33950;48.154;16.316;2023-04-03T09:23:46;4.80;;;2.70;;
48161;SDS011;33950;48.154;16.316;2023-04-03T09:26:36;7.97;;;3.05;;
48161;SDS011;33950;48.154;16.316;2023-04-03T09:29:29;8.35;;;3.28;;
48161;SDS011;33950;48.154;16.316;2023-04-03T09:32:18;8.27;;;2.50;;
48161;SDS011;33950;48.154;16.316;2023-04-03T09:35:14;5.78;;;2.42;;
48161;SDS011;33950;48.154;16.316;2023-04-03T09:38:15;4.95;;;2.60;;
48161;SDS011;33950;48.154;16.316;2023-04-03T09:41:04;7.30;;;2.60;;
48161;SDS011;33950;48.154;16.316;2023-04-03T09:43:53;6.68;;;2.92;;
48161;SDS011;33950;48.154;16.316;2023-04-03T09:46:40;7.30;;;2.45;;
48161;SDS011;33950;48.154;16.316;2023-04-03T09:49:26;6.78;;;2.50;;
48161;SDS011;33950;48.154;16.316;2023-04-03T09:52:22;4.32;;;2.15;;
48161;SDS011;33950;48.154;16.316;2023-04-03T09:55:14;4.55;;;2.53;;
48161;SDS011;33950;48.154;16.316;2023-04-03T09:58:04;11.30;;;3.20;;
48161;SDS011;33950;48.154;16.316;2023-04-03T10:01:09;8.77;;;3.50;;
48161;SDS011;33950;48.154;16.316;2023-04-03T10:04:09;8.63;;;3.15;;
48161;SDS011;33950;48.154;16.316;2023-04-03T10:06:56;9.27;;;2.97;;
48161;SDS011;33950;48.154;16.316;2023-04-03T10:09:43;8.10;;;2.63;;
48161;SDS011;33950;48.154;16.316;2023-04-03T10:12:42;5.93;;;3.22;;
48161;SDS011;33950;48.154;16.316;2023-04-03T10:15:28;7.45;;;3.30;;
48161;SDS011;33950;48.154;16.316;2023-04-03T10:18:26;8.10;;;3.22;;
48161;SDS011;33950;48.154;16.316;2023-04-03T10:21:19;7.40;;;3.13;;
48161;SDS011;33950;48.154;16.316;2023-04-03T10:24:15;8.02;;;2.78;;
48161;SDS011;33950;48.154;16.316;2023-04-03T10:29:58;7.47;;;2.80;;
48161;SDS011;33950;48.154;16.316;2023-04-03T10:32:55;6.68;;;2.95;;
48161;SDS011;33950;48.154;16.316;2023-04-03T10:35:49;7.22;;;2.75;;
48161;SDS011;33950;48.154;16.316;2023-04-03T10:38:46;7.25;;;3.33;;
48161;SDS011;33950;48.154;16.316;2023-04-03T10:41:41;8.75;;;3.03;;
48161;SDS011;33950;48.154;16.316;2023-04-03T10:44:37;7.97;;;3.55;;
48161;SDS011;33950;48.154;16.316;2023-04-03T10:47:36;6.97;;;3.20;;
48161;SDS011;33950;48.154;16.316;2023-04-03T10:50:39;7.90;;;3.63;;
48161;SDS011;33950;48.154;16.316;2023-04-03T10:53:34;13.90;;;4.20;;
48161;SDS011;33950;48.154;16.316;2023-04-03T10:56:27;11.15;;;3.10;;
48161;SDS011;33950;48.154;16.316;2023-04-03T10:59:18;9.88;;;2.65;;
48161;SDS011;33950;48.154;16.316;2023-04-03T11:02:12;9.23;;;2.80;;
48161;SDS011;33950;48.154;16.316;2023-04-03T11:07:54;5.07;;;2.70;;
48161;SDS011;33950;48.154;16.316;2023-04-03T11:10:44;4.43;;;2.00;;
48161;SDS011;33950;48.154;16.316;2023-04-03T11:13:34;3.83;;;2.05;;
48161;SDS011;33950;48.154;16.316;2023-04-03T11:16:24;5.55;;;2.72;;
48161;SDS011;33950;48.154;16.316;2023-04-03T11:19:14;4.35;;;2.50;;
48161;SDS011;33950;48.154;16.316;2023-04-03T11:22:10;6.53;;;2.35;;
48161;SDS011;33950;48.154;16.316;2023-04-03T11:25:05;5.40;;;2.45;;
48161;SDS011;33950;48.154;16.316;2023-04-03T11:28:01;3.72;;;2.35;;
48161;SDS011;33950;48.154;16.316;2023-04-03T11:30:49;5.93;;;2.60;;
48161;SDS011;33950;48.154;16.316;2023-04-03T11:33:48;8.52;;;2.30;;
48161;SDS011;33950;48.154;16.316;2023-04-03T11:36:41;6.25;;;2.35;;
48161;SDS011;33950;48.154;16.316;2023-04-03T11:39:32;8.18;;;2.17;;
48161;SDS011;33950;48.154;16.316;2023-04-03T11:42:24;8.20;;;2.67;;
48161;SDS011;33950;48.154;16.316;2023-04-03T11:45:29;4.03;;;2.42;;
48161;SDS011;33950;48.154;16.316;2023-04-03T11:54:42;6.28;;;2.50;;
48161;SDS011;33950;48.154;16.316;2023-04-03T11:57:42;9.73;;;2.97;;
48161;SDS011;33950;48.154;16.316;2023-04-03T12:00:51;5.90;;;2.75;;
48161;SDS011;33950;48.154;16.316;2023-04-03T12:10:01;13.15;;;3.17;;
48161;SDS011;33950;48.154;16.316;2023-04-03T12:13:12;5.38;;;2.55;;
48161;SDS011;33950;48.154;16.316;2023-04-03T12:16:01;6.78;;;2.70;;
48161;SDS011;33950;48.154;16.316;2023-04-03T12:18:56;7.35;;;2.63;;
48161;SDS011;33950;48.154;16.316;2023-04-03T12:24:52;4.72;;;2.33;;
48161;SDS011;33950;48.154;16.316;2023-04-03T12:27:40;7.43;;;3.20;;
48161;SDS011;33950;48.154;16.316;2023-04-03T12:30:27;4.25;;;2.67;;
48161;SDS011;33950;48.154;16.316;2023-04-03T12:33:20;7.57;;;2.75;;
48161;SDS011;33950;48.154;16.316;2023-04-03T12:36:15;6.82;;;2.78;;
48161;SDS011;33950;48.154;16.316;2023-04-03T12:42:24;6.45;;;2.85;;
48161;SDS011;33950;48.154;16.316;2023-04-03T12:45:41;7.55;;;3.17;;
48161;SDS011;33950;48.154;16.316;2023-04-03T12:48:31;6.28;;;2.80;;
48161;SDS011;33950;48.154;16.316;2023-04-03T12:51:32;7.28;;;2.78;;
48161;SDS011;33950;48.154;16.316;2023-04-03T12:54:22;11.02;;;2.97;;
48161;SDS011;33950;48.154;16.316;2023-04-03T13:00:18;4.85;;;2.72;;
48161;SDS011;33950;48.154;16.316;2023-04-03T13:03:17;8.23;;;3.10;;
48161;SDS011;33950;48.154;16.316;2023-04-03T13:06:10;11.07;;;2.83;;
48161;SDS011;33950;48.154;16.316;2023-04-03T13:09:04;9.55;;;3.05;;
48161;SDS011;33950;48.154;16.316;2023-04-03T13:12:01;8.45;;;2.63;;
48161;SDS011;33950;48.154;16.316;2023-04-03T13:14:55;5.22;;;2.33;;
48161;SDS011;33950;48.154;16.316;2023-04-03T13:17:43;10.23;;;3.15;;
48161;SDS011;33950;48.154;16.316;2023-04-03T13:20:31;8.20;;;2.80;;
48161;SDS011;33950;48.154;16.316;2023-04-03T13:23:21;5.40;;;2.20;;
48161;SDS011;33950;48.154;16.316;2023-04-03T13:26:09;6.50;;;2.80;;
48161;SDS011;33950;48.154;16.316;2023-04-03T13:28:56;6.22;;;2.53;;
48161;SDS011;33950;48.154;16.316;2023-04-03T13:31:45;7.68;;;3.08;;
48161;SDS011;33950;48.154;16.316;2023-04-03T13:34:36;4.70;;;2.20;;
48161;SDS011;33950;48.154;16.316;2023-04-03T13:37:25;3.63;;;2.47;;
48161;SDS011;33950;48.154;16.316;2023-04-03T13:40:13;8.52;;;1.92;;
48161;SDS011;33950;48.154;16.316;2023-04-03T13:43:00;5.68;;;2.83;;
48161;SDS011;33950;48.154;16.316;2023-04-03T13:45:58;4.80;;;2.45;;
48161;SDS011;33950;48.154;16.316;2023-04-03T13:48:50;3.28;;;2.08;;
48161;SDS011;33950;48.154;16.316;2023-04-03T13:51:38;4.28;;;2.40;;
48161;SDS011;33950;48.154;16.316;2023-04-03T13:54:29;6.85;;;2.70;;
48161;SDS011;33950;48.154;16.316;2023-04-03T13:57:18;6.13;;;2.58;;
48161;SDS011;33950;48.154;16.316;2023-04-03T14:03:16;6.40;;;2.05;;
48161;SDS011;33950;48.154;16.316;2023-04-03T14:06:06;5.47;;;2.10;;
48161;SDS011;33950;48.154;16.316;2023-04-03T14:08:54;6.93;;;2.58;;
48161;SDS011;33950;48.154;16.316;2023-04-03T14:11:42;6.72;;;2.30;;
48161;SDS011;33950;48.154;16.316;2023-04-03T14:14:29;7.28;;;3.08;;
48161;SDS011;33950;48.154;16.316;2023-04-03T14:17:18;5.95;;;2.55;;
48161;SDS011;33950;48.154;16.316;2023-04-03T14:20:09;4.63;;;1.85;;
48161;SDS011;33950;48.154;16.316;2023-04-03T14:23:00;5.60;;;2.60;;
48161;SDS011;33950;48.154;16.316;2023-04-03T14:25:46;6.35;;;2.08;;
48161;SDS011;33950;48.154;16.316;2023-04-03T14:28:34;4.55;;;2.10;;
48161;SDS011;33950;48.154;16.316;2023-04-03T14:31:20;5.68;;;2.35;;
48161;SDS011;33950;48.154;16.316;2023-04-03T14:34:08;6.28;;;2.55;;
48161;SDS011;33950;48.154;16.316;2023-04-03T14:36:55;5.60;;;2.20;;
48161;SDS011;33950;48.154;16.316;2023-04-03T14:39:45;5.22;;;2.17;;
48161;SDS011;33950;48.154;16.316;2023-04-03T14:42:32;7.55;;;2.28;;
48161;SDS011;33950;48.154;16.316;2023-04-03T14:45:21;3.10;;;2.10;;
48161;SDS011;33950;48.154;16.316;2023-04-03T14:48:09;4.78;;;2.40;;
48161;SDS011;33950;48.154;16.316;2023-04-03T14:50:56;6.63;;;2.20;;
48161;SDS011;33950;48.154;16.316;2023-04-03T14:53:43;9.98;;;2.60;;
48161;SDS011;33950;48.154;16.316;2023-04-03T14:56:30;8.25;;;2.53;;
48161;SDS011;33950;48.154;16.316;2023-04-03T14:59:16;5.50;;;2.42;;
48161;SDS011;33950;48.154;16.316;2023-04-03T15:02:11;9.73;;;2.20;;
48161;SDS011;33950;48.154;16.316;2023-04-03T15:05:11;4.95;;;2.00;;
48161;SDS011;33950;48.154;16.316;2023-04-03T15:07:58;6.25;;;2.90;;
48161;SDS011;33950;48.154;16.316;2023-04-03T15:10:45;4.18;;;1.98;;
48161;SDS011;33950;48.154;16.316;2023-04-03T15:13:32;4.88;;;2.67;;
48161;SDS011;33950;48.154;16.316;2023-04-03T15:16:18;9.65;;;2.90;;
48161;SDS011;33950;48.154;16.316;2023-04-03T15:19:06;4.90;;;2.72;;
48161;SDS011;33950;48.154;16.316;2023-04-03T15:21:52;7.13;;;2.50;;
48161;SDS011;33950;48.154;16.316;2023-04-03T15:24:38;9.40;;;2.42;;
48161;SDS011;33950;48.154;16.316;2023-04-03T15:27:25;5.13;;;2.55;;
48161;SDS011;33950;48.154;16.316;2023-04-03T15:30:13;5.13;;;2.28;;
48161;SDS011;33950;48.154;16.316;2023-04-03T15:33:01;5.00;;;2.13;;
48161;SDS011;33950;48.154;16.316;2023-04-03T15:35:48;7.28;;;2.25;;
48161;SDS011;33950;48.154;16.316;2023-04-03T15:38:34;5.57;;;2.10;;
48161;SDS011;33950;48.154;16.316;2023-04-03T15:41:23;5.28;;;2.40;;
48161;SDS011;33950;48.154;16.316;2023-04-03T15:44:09;5.95;;;2.15;;
48161;SDS011;33950;48.154;16.316;2023-04-03T15:46:55;5.32;;;1.92;;
48161;SDS011;33950;48.154;16.316;2023-04-03T15:49:41;4.70;;;1.95;;
48161;SDS011;33950;48.154;16.316;2023-04-03T15:52:29;6.88;;;2.22;;
48161;SDS011;33950;48.154;16.316;2023-04-03T15:55:15;6.00;;;1.83;;
48161;SDS011;33950;48.154;16.316;2023-04-03T15:58:02;5.28;;;1.88;;
48161;SDS011;33950;48.154;16.316;2023-04-03T16:00:48;6.93;;;2.20;;
48161;SDS011;33950;48.154;16.316;2023-04-03T16:03:34;5.32;;;1.85;;
48161;SDS011;33950;48.154;16.316;2023-04-03T16:06:20;4.30;;;2.22;;
48161;SDS011;33950;48.154;16.316;2023-04-03T16:09:10;4.05;;;2.08;;
48161;SDS011;33950;48.154;16.316;2023-04-03T16:11:56;6.75;;;2.10;;
48161;SDS011;33950;48.154;16.316;2023-04-03T16:14:43;4.22;;;2.13;;
48161;SDS011;33950;48.154;16.316;2023-04-03T16:17:29;9.95;;;2.25;;
48161;SDS011;33950;48.154;16.316;2023-04-03T16:20:16;6.75;;;2.03;;
48161;SDS011;33950;48.154;16.316;2023-04-03T16:23:04;3.58;;;1.83;;
48161;SDS011;33950;48.154;16.316;2023-04-03T16:25:51;4.25;;;1.80;;
48161;SDS011;33950;48.154;16.316;2023-04-03T16:28:37;3.85;;;1.92;;
48161;SDS011;33950;48.154;16.316;2023-04-03T16:31:24;4.13;;;1.80;;
48161;SDS011;33950;48.154;16.316;2023-04-03T16:34:11;6.30;;;2.15;;
48161;SDS011;33950;48.154;16.316;2023-04-03T16:36:57;4.75;;;2.00;;
48161;SDS011;33950;48.154;16.316;2023-04-03T16:39:44;9.38;;;2.63;;
48161;SDS011;33950;48.154;16.316;2023-04-03T16:42:32;5.55;;;2.58;;
48161;SDS011;33950;48.154;16.316;2023-04-03T16:45:18;5.63;;;1.70;;
48161;SDS011;33950;48.154;16.316;2023-04-03T16:48:04;6.20;;;2.33;;
48161;SDS011;33950;48.154;16.316;2023-04-03T16:50:51;5.78;;;2.78;;
48161;SDS011;33950;48.154;16.316;2023-04-03T16:53:40;6.60;;;2.80;;
48161;SDS011;33950;48.154;16.316;2023-04-03T16:56:27;6.32;;;2.63;;
48161;SDS011;33950;48.154;16.316;2023-04-03T16:59:14;3.85;;;1.83;;
48161;SDS011;33950;48.154;16.316;2023-04-03T17:02:00;5.50;;;1.95;;
48161;SDS011;33950;48.154;16.316;2023-04-03T17:04:47;5.60;;;2.00;;
48161;SDS011;33950;48.154;16.316;2023-04-03T17:07:33;7.07;;;2.20;;
48161;SDS011;33950;48.154;16.316;2023-04-03T17:10:19;5.45;;;2.03;;
48161;SDS011;33950;48.154;16.316;2023-04-03T17:13:06;4.32;;;1.90;;
48161;SDS011;33950;48.154;16.316;2023-04-03T17:15:53;4.10;;;2.03;;